Tiempo atmosférico en la estación meteorológica de Aguilar De Campoo, Palencia (910 m.)



Fecha
DESCASC
Temp. máxima en grados centígrados (hora)
DESCASC
Temp. mínima en grados centígrados (hora)
DESCASC
Temp. media en grados centígrados
DESCASC
Racha de viento máxima en m/sg (hora)
DESCASC
Velocidad máxima media en intervalos de 10 minutos(hora)
DESCASC
Precipitaciones diarias en mm
DESCASC
Precipitaciones de 00:00 a 06:00 en mm
DESCASC
Precipitaciones de 06:00 a 12:00 en mm
DESCASC
Precipitaciones de 12:00 a 18:00 en mm
DESCASC
Precipitaciones de 18:00 a 24:00 en mm
DESCASC
10-07-2020 20.7 (14:10) 12.7 (23:59) 16.7 12.78 (20:00) 7.22 (19:40) 0 0 0 0 0
09-07-2020 28.1 (15:00) 12.8 (07:00) 20.5 10.83 (18:10) 6.39 (18:00) 0 0 0 0 0
08-07-2020 26.3 (17:10) 9.8 (07:20) 18 11.94 (22:30) 6.39 (22:30) 0.6 0 0 0 0.6
07-07-2020 26.9 (17:30) 9.1 (06:50) 18 10 (19:30) 5 (19:20) 0 0 0 0 0
06-07-2020 21.1 (15:30) 12.7 (00:00) 16.9 12.78 (18:20) 7.22 (17:10) 0 0 0 0 0
05-07-2020 27.8 (15:50) 9.8 (07:10) 18.8 9.72 (18:50) 5.56 (20:10) 0 0 0 0 0
04-07-2020 26.1 (16:20) 9.1 (07:10) 17.6 9.44 (18:10) 5 (18:50) 0 0 0 0 0
03-07-2020 20.2 (17:30) 8 (06:40) 14.1 10 (14:40) 5.28 (20:40) 0 0 0 0 0
02-07-2020 18.1 (16:50) 10.3 (00:00) 14.2 11.67 (16:20) 6.11 (16:20) 0 0 0 0 0
01-07-2020 24.5 (13:30) 14 (00:00) 19.3 12.5 (16:10) 6.67 (16:20) 0 0 0 0 0
30-06-2020 31 (17:10) 8.8 (00:00) 19.9 9.44 (19:30) 5.83 (19:30) 0 0 0 0 0
29-06-2020 21.9 (17:10) 13.6 (00:00) 17.8 10.56 (18:30) 5.28 (19:00) 0 0 0 0 0
28-06-2020 25.9 (15:30) 14 (00:00) 19.9 10.28 (19:40) 5.83 (19:20) 0 0 0 0 0
27-06-2020 25.4 (17:00) 8.6 (00:00) 17 8.61 (15:00) 4.72 (14:50) 0 0 0 0 0
26-06-2020 26.1 (17:00) 13.1 (00:00) 19.6 10.56 (16:40) 6.39 (19:20) 0 0 0 0 0
25-06-2020 23.8 (18:30) 14.4 (00:00) 19.1 8.89 (07:40) 4.72 (07:40) 7 1 1.2 1.4 3.4
24-06-2020 29.8 (14:50) 13.2 (00:00) 21.5 13.33 (16:30) 6.11 (16:30) 3.6 0 0 3.6 0
23-06-2020 32.6 (18:00) 8.2 (00:00) 20.4 7.78 (19:00) 4.44 (19:00) 0 0 0 0 0
22-06-2020 27.9 (17:10) 13.1 (00:00) 20.5 8.61 (18:50) 4.44 (18:10) 0 0 0 0 0
21-06-2020 25.6 (15:50) 8.4 (00:00) 17 11.11 (16:10) 6.11 (19:00) 0 0 0 0 0
20-06-2020 26.7 (17:30) 6.2 (00:00) 16.5 8.61 (20:30) 4.72 (20:10) 0 0 0 0 0
19-06-2020 23.9 (16:50) 4.5 (00:00) 14.2 12.22 (19:40) 6.67 (18:40) 0 0 0 0 0
18-06-2020 17.8 (14:00) 7.5 (06:30) 12.6 9.72 (16:10) 5.28 (16:00) 2.2 2.2 0 0 0
17-06-2020 16.5 (14:00) 9.1 (00:00) 12.8 8.89 (17:30) 5 (18:40) 1 0.6 0 0 0.4
16-06-2020 18.4 (14:30) 8.3 (00:00) 13.3 10.56 (15:30) 5.56 (15:40) 1.2 0 0 1.2 0
15-06-2020 18.8 (14:30) 7.7 (00:00) 13.2 9.17 (18:20) 5.83 (18:20) 0 0 0 0 0
14-06-2020 18.6 (17:10) 5.4 (00:00) 12 10 (13:50) 5 (13:50) 0 0 0 0 0
13-06-2020 16.5 (14:50) 8 (00:00) 12.3 10 (13:20) 5.83 (14:40) 0 0 0 0 0
12-06-2020 14.5 (12:40) 6.9 (00:00) 10.7 12.22 (06:10) 7.22 (10:30) 1.2 0 0 1.2 0
11-06-2020 17.6 (13:40) 7.7 (00:00) 12.7 11.11 (18:40) 6.39 (18:40) 0 0 0 0 0

Gráficas

Temp. máximas Temp. mínimas Temp. medias Precipitaciones Rachas de viento máximas Velocidades máximas media en intervalos de 10 minutos

Datos horarios

Fecha y hora oficial Temperatura (ºC) Velocidad del viento (km/h) Dirección del viento Racha (km/h) Dirección de racha Precipitación (mm) Presión (hPa) Tendencia (hPa) Humedad (%)
2020-07-10 23:00:00 13.2 18 Sur 37 Sudeste 0 -- -- 90
2020-07-10 22:00:00 13.7 18 Sur 40 Sur 0 -- -- 89
2020-07-10 21:00:00 14.8 24 Sur 40 Sur 0 -- -- 86
2020-07-10 20:00:00 15.9 24 Sur 46 Sur 0 -- -- 82
2020-07-10 19:00:00 18.2 23 Sur 42 Sur 0 -- -- 75
2020-07-10 18:00:00 18.7 24 Sur 40 Sur 0 -- -- 73
2020-07-10 17:00:00 19 22 Sur 42 Sur 0 -- -- 72
2020-07-10 16:00:00 19.6 23 Sur 45 Sur 0 -- -- 69
2020-07-10 15:00:00 20.4 19 Sur 36 Sur 0 -- -- 66
2020-07-10 14:00:00 20.5 18 Sur 37 Sudeste 0 -- -- 67
2020-07-10 13:00:00 19 18 Sur 39 Sudoeste 0 -- -- 72
2020-07-10 12:00:00 17.8 18 Sur 35 Sur 0 -- -- 77
2020-07-10 11:00:00 16.4 15 Sur 29 Sur 0 -- -- 82
2020-07-10 10:00:00 15.6 14 Sudeste 27 Sudeste 0 -- -- 86
2020-07-10 09:00:00 15.1 14 Sur 29 Sudeste 0 -- -- 90
2020-07-10 08:00:00 14.9 13 Sur 27 Sudeste 0 -- -- 91
2020-07-10 07:00:00 14.7 9 Sur 21 Sudeste 0 -- -- 93
2020-07-10 06:00:00 13.5 4 Sudeste 11 Sur 0 -- -- 96
2020-07-10 05:00:00 13.6 5 Sudeste 10 Sudeste 0 -- -- 94
2020-07-10 04:00:00 14.2 4 Sudeste 12 Sur 0 -- -- 95
2020-07-10 03:00:00 14.5 7 Sudeste 15 Sur 0 -- -- 93
2020-07-10 02:00:00 15.5 6 Sudeste 15 Sur 0 -- -- 91
2020-07-10 01:00:00 15.4 6 Sur 25 Sur 0 -- -- 92
2020-07-10 00:00:00 15.7 11 Sur 33 Sudeste 0 -- -- 92
2020-07-09 23:00:00 17.1 12 Sur 21 Sur 0 -- -- 84
2020-07-09 22:00:00 19.2 3 Nordeste 9 Nordeste 0 -- -- 70
2020-07-09 21:00:00 20.7 3 Este 23 Sur 0 -- -- 61
2020-07-09 20:00:00 22.7 13 Sudoeste 36 Sudeste 0 -- -- 51
2020-07-09 19:00:00 24 16 Sudeste 39 Sudeste 0 -- -- 65
2020-07-09 18:00:00 26.1 23 Sur 36 Sur 0 -- -- 58
2020-07-09 17:00:00 27.3 15 Sudeste 38 Este 0 -- -- 53
2020-07-09 16:00:00 27.7 17 Sudeste 36 Sudeste 0 -- -- 51
2020-07-09 15:00:00 28.1 11 Sudeste 27 Sudeste 0 -- -- 47
2020-07-09 14:00:00 26.9 11 Sur 25 Sur 0 -- -- 49
2020-07-09 13:00:00 26.1 11 Sur 26 Sur 0 -- -- 50
2020-07-09 12:00:00 24.1 13 Sur 21 Sur 0 -- -- 60
2020-07-09 11:00:00 22.4 9 Sur 18 Sudeste 0 -- -- 65
2020-07-09 10:00:00 20 4 Sudeste 17 Sudeste 0 -- -- 75
2020-07-09 09:00:00 16.5 6 Sudeste 14 Sudeste 0 -- -- 84
2020-07-09 08:00:00 13.4 8 Este 12 Este 0 -- -- 91
2020-07-09 07:00:00 12.8 6 Este 12 Este 0 -- -- 93
2020-07-09 06:00:00 13.2 4 Nordeste 14 Este 0 -- -- 94
2020-07-09 05:00:00 13.5 4 Sudeste 10 Este 0 -- -- 93
2020-07-09 04:00:00 14.1 4 Este 8 Sur 0 -- -- 88
2020-07-09 03:00:00 15.5 2 Oeste 17 Sudeste 0 -- -- 84
2020-07-09 02:00:00 15.7 8 Sudeste 16 Sudeste 0 -- -- 86
2020-07-09 01:00:00 16.7 2 Este 13 Nordeste 0 -- -- 84
2020-07-09 00:00:00 17.7 9 Este 20 Oeste 0.6 -- -- 82
2020-07-08 23:00:00 22 12 Oeste 43 Oeste 0 -- -- 52
2020-07-08 22:00:00 21.3 12 Sur 37 Sur 0 -- -- 55
2020-07-08 21:00:00 23 14 Sudeste 40 Sudeste 0 -- -- 60
2020-07-08 20:00:00 22.2 12 Sur 36 Sur 0 -- -- 70
2020-07-08 19:00:00 23.1 10 Sudeste 25 Sudeste 0 -- -- 64
2020-07-08 18:00:00 24.6 13 Sudeste 33 Sudeste 0 -- -- 58
2020-07-08 17:00:00 25.9 13 Sur 27 Sur 0 -- -- 50
2020-07-08 16:00:00 25.5 13 Sur 26 Sur 0 -- -- 48
2020-07-08 15:00:00 25.8 14 Sur 31 Sudeste 0 -- -- 48
2020-07-08 14:00:00 25.1 14 Sur 27 Sur 0 -- -- 48
2020-07-08 13:00:00 23.1 13 Sur 22 Sudoeste 0 -- -- 51
2020-07-08 12:00:00 22.9 13 Sur 26 Sur 0 -- -- 49
2020-07-08 11:00:00 20.8 6 Sur 20 Sudeste 0 -- -- 56
2020-07-08 10:00:00 18.7 5 Sur 12 Sur 0 -- -- 62
2020-07-08 09:00:00 14.4 2 Sudeste 9 Sudeste 0 -- -- 82
2020-07-08 08:00:00 10.8 3 Este 9 Este 0 -- -- 95
2020-07-08 07:00:00 10 6 Este 11 Este 0 -- -- 95
2020-07-08 06:00:00 10.5 0 Calma 15 Este 0 -- -- 94
2020-07-08 05:00:00 11.7 6 Este 9 Este 0 -- -- 94
2020-07-08 04:00:00 13 0 Calma 11 Sur 0 -- -- 91
2020-07-08 03:00:00 13.8 4 Sur 12 Sur 0 -- -- 91
2020-07-08 02:00:00 14.3 7 Sudeste 18 Sudeste 0 -- -- 92
2020-07-08 01:00:00 14.9 8 Sudeste 19 Sudeste 0 -- -- 89
2020-07-08 00:00:00 16 5 Sudeste 22 Sur 0 -- -- 84
2020-07-07 23:00:00 17.6 13 Sudeste 31 Sur 0 -- -- 78
2020-07-07 22:00:00 19.6 12 Sudeste 26 Sudeste 0 -- -- 67
2020-07-07 21:00:00 21.9 14 Sudeste 26 Sur 0 -- -- 60
2020-07-07 20:00:00 23.8 15 Sudeste 36 Sudeste 0 -- -- 53
2020-07-07 19:00:00 25.2 15 Sudeste 31 Sudeste 0 -- -- 49
2020-07-07 18:00:00 26.5 14 Sudeste 28 Sudeste 0 -- -- 41
2020-07-07 17:00:00 26.7 12 Sur 26 Sur 0 -- -- 37
2020-07-07 16:00:00 26.6 12 Sudeste 24 Sudeste 0 -- -- 35
2020-07-07 15:00:00 25.4 12 Sur 23 Sur 0 -- -- 34
2020-07-07 14:00:00 24.1 11 Sur 23 Sur 0 -- -- 35
2020-07-07 13:00:00 22.2 12 Sur 23 Sur 0 -- -- 43
2020-07-07 12:00:00 19.9 12 Sur 22 Sur 0 -- -- 40
2020-07-07 11:00:00 17.5 9 Sur 18 Sudeste 0 -- -- 52
2020-07-07 10:00:00 14.4 7 Sur 12 Sudeste 0 -- -- 74
2020-07-07 09:00:00 10.8 3 Sur 16 Sur 0 -- -- 89
2020-07-07 08:00:00 10.2 9 Sur 16 Sur 0 -- -- 91
2020-07-07 07:00:00 9.1 9 Sudeste 16 Sudeste 0 -- -- 95
2020-07-07 06:00:00 9.6 9 Sur 16 Sur 0 -- -- 94
2020-07-07 05:00:00 9.6 6 Sur 19 Sudeste 0 -- -- 94
2020-07-07 04:00:00 10.1 10 Sudeste 22 Sudeste 0 -- -- 93
2020-07-07 03:00:00 10.5 9 Sudeste 20 Sur 0 -- -- 91
2020-07-07 02:00:00 11.2 10 Sur 18 Sur 0 -- -- 89
2020-07-07 01:00:00 12 13 Sur 28 Sur 0 -- -- 90
2020-07-07 00:00:00 12.7 16 Sur 31 Sudeste 0 -- -- 90
2020-07-06 23:00:00 13 14 Sur 35 Sudeste 0 -- -- 88
2020-07-06 22:00:00 13.4 15 Sur 36 Sur 0 -- -- 88
2020-07-06 21:00:00 14.5 20 Sur 40 Sudeste 0 -- -- 85
2020-07-06 20:00:00 15.9 24 Sudeste 45 Sur 0 -- -- 79
2020-07-06 19:00:00 17.6 21 Sur 46 Sudeste 0 -- -- 73
2020-07-06 18:00:00 18.6 23 Sur 44 Sur 0 -- -- 70
2020-07-06 17:00:00 20.2 21 Sudeste 44 Sur 0 -- -- 68
2020-07-06 16:00:00 20.7 19 Sudeste 39 Sur 0 -- -- 66
2020-07-06 15:00:00 20.8 18 Sudeste 41 Sudeste 0 -- -- 66
2020-07-06 14:00:00 20.3 22 Sur 43 Sudeste 0 -- -- 66
2020-07-06 13:00:00 20.3 20 Sudeste 39 Sur 0 -- -- 69
2020-07-06 12:00:00 19.4 17 Sur 41 Sudeste 0 -- -- 72
2020-07-06 11:00:00 18 22 Sur 39 Sur 0 -- -- 77
2020-07-06 10:00:00 16.4 15 Sudeste 30 Sudeste 0 -- -- 85
2020-07-06 09:00:00 15.7 15 Sur 29 Sur 0 -- -- 87
2020-07-06 08:00:00 14.6 13 Sur 27 Sur 0 -- -- 91
2020-07-06 07:00:00 14.2 14 Sur 30 Sur 0 -- -- 93
2020-07-06 06:00:00 13.9 15 Sur 29 Sur 0 -- -- 95
2020-07-06 05:00:00 13.7 10 Sur 19 Sur 0 -- -- 93
2020-07-06 04:00:00 13.9 10 Sur 23 Sur 0 -- -- 92
2020-07-06 03:00:00 14.7 15 Sur 32 Sudeste 0 -- -- 93
2020-07-06 02:00:00 15.2 14 Sur 28 Sudeste 0 -- -- 92
2020-07-06 01:00:00 15.5 16 Sur 31 Sudeste 0 -- -- 92
2020-07-06 00:00:00 16 13 Sur 29 Sur 0 -- -- 90
2020-07-05 23:00:00 17.6 13 Sur 26 Sur 0 -- -- 81
2020-07-05 22:00:00 19.1 10 Sur 29 Sudeste 0 -- -- 78
2020-07-05 21:00:00 21.4 15 Sur 32 Sudeste 0 -- -- 72
2020-07-05 20:00:00 24.2 13 Sudeste 30 Sur 0 -- -- 61
2020-07-05 19:00:00 25.5 14 Sudeste 35 Sur 0 -- -- 58
2020-07-05 18:00:00 26.8 19 Sudeste 33 Sudeste 0 -- -- 51
2020-07-05 17:00:00 27.5 18 Sur 29 Sudeste 0 -- -- 47
2020-07-05 16:00:00 27.7 16 Sudeste 31 Sur 0 -- -- 46
2020-07-05 15:00:00 27.3 12 Sur 25 Sur 0 -- -- 47
2020-07-05 14:00:00 26.4 12 Sur 24 Sur 0 -- -- 49
2020-07-05 13:00:00 25.1 10 Sur 21 Sur 0 -- -- 51
2020-07-05 12:00:00 23.3 11 Sur 18 Sudeste 0 -- -- 56
2020-07-05 11:00:00 21.9 6 Sudeste 15 Sur 0 -- -- 57
2020-07-05 10:00:00 18.5 5 Norte 10 Noroeste 0 -- -- 70
2020-07-05 09:00:00 15.8 0 Calma 8 Este 0 -- -- 79
2020-07-05 08:00:00 11 4 Este 14 Este 0 -- -- 93
2020-07-05 07:00:00 9.9 0 Calma 9 Nordeste 0 -- -- 91
2020-07-05 06:00:00 10.3 8 Este 12 Este 0 -- -- 92
2020-07-05 05:00:00 10.7 6 Este 14 Este 0 -- -- 91
2020-07-05 04:00:00 11.4 0 Calma 6 Este 0 -- -- 82
2020-07-05 03:00:00 12.7 0 Calma 11 Este 0 -- -- 77
2020-07-05 02:00:00 14.6 7 Sur 16 Sur 0 -- -- 70
2020-07-05 01:00:00 15.2 6 Sur 18 Sur 0 -- -- 66
2020-07-05 00:00:00 16.1 8 Sur 26 Sudeste 0 -- -- 66
2020-07-04 23:00:00 17.1 13 Sudeste 30 Sur 0 -- -- 67
2020-07-04 22:00:00 18.6 16 Sur 30 Sur 0 -- -- 70
2020-07-04 21:00:00 20.9 15 Sudeste 31 Sur 0 -- -- 58
2020-07-04 20:00:00 22.6 17 Sudeste 32 Sur 0 -- -- 54
2020-07-04 19:00:00 23.6 17 Sudeste 34 Sudeste 0 -- -- 55
2020-07-04 18:00:00 25.1 15 Sur 32 Sur 0 -- -- 48
2020-07-04 17:00:00 25.8 15 Sur 27 Sur 0 -- -- 42
2020-07-04 16:00:00 25.8 8 Sur 25 Este 0 -- -- 38
2020-07-04 15:00:00 25.4 9 Sur 23 Sur 0 -- -- 37
2020-07-04 14:00:00 24.3 8 Sur 18 Oeste 0 -- -- 34
2020-07-04 13:00:00 22.4 8 Noroeste 12 Noroeste 0 -- -- 36
2020-07-04 12:00:00 20 6 Noroeste 10 Oeste 0 -- -- 45
2020-07-04 11:00:00 16.7 4 Sudoeste 10 Sur 0 -- -- 61
2020-07-04 10:00:00 13.3 0 Calma 6 Sur 0 -- -- 81
2020-07-04 09:00:00 9.8 2 Sur 6 Sudeste 0 -- -- 95
2020-07-04 08:00:00 9.2 0 Calma 8 Sudeste 0 -- -- 96
2020-07-04 07:00:00 9.2 5 Sudeste 9 Sudeste 0 -- -- 95
2020-07-04 06:00:00 9.6 5 Este 10 Sudeste 0 -- -- 93
2020-07-04 05:00:00 10.3 2 Sudeste 9 Sur 0 -- -- 93
2020-07-04 04:00:00 10.1 4 Este 7 Sur 0 -- -- 93
2020-07-04 03:00:00 10.8 4 Sur 15 Sur 0 -- -- 91
2020-07-04 02:00:00 11.5 6 Sur 22 Sur 0 -- -- 89
2020-07-04 01:00:00 11.8 7 Sur 14 Sur 0 -- -- 91
2020-07-04 00:00:00 11.6 5 Sur 15 Sudeste 0 -- -- 92
2020-07-03 23:00:00 12.1 6 Sudeste 19 Sudeste 0 -- -- 89
2020-07-03 22:00:00 13.2 10 Sudeste 26 Sur 0 -- -- 85
2020-07-03 21:00:00 15.1 14 Sur 30 Sur 0 -- -- 78
2020-07-03 20:00:00 17.4 15 Sudeste 29 Sudeste 0 -- -- 68
2020-07-03 19:00:00 19.1 17 Sudeste 30 Sur 0 -- -- 61
2020-07-03 18:00:00 19.9 13 Sudeste 25 Sudeste 0 -- -- 55
2020-07-03 17:00:00 20.1 13 Sur 26 Sudeste 0 -- -- 52
2020-07-03 16:00:00 19.4 12 Sudeste 33 Sur 0 -- -- 51
2020-07-03 15:00:00 18.3 15 Sur 36 Sur 0 -- -- 53
2020-07-03 14:00:00 17.1 14 Sur 32 Sudeste 0 -- -- 52
2020-07-03 13:00:00 16 17 Sudeste 32 Sur 0 -- -- 54
2020-07-03 12:00:00 15 16 Sur 32 Sudeste 0 -- -- 59
2020-07-03 11:00:00 14 15 Sur 30 Sudeste 0 -- -- 64
2020-07-03 10:00:00 13.3 13 Sudeste 32 Sur 0 -- -- 71
2020-07-03 09:00:00 11.6 13 Sudeste 25 Sur 0 -- -- 80
2020-07-03 08:00:00 9.1 7 Sudeste 15 Sur 0 -- -- 91
2020-07-03 07:00:00 8 5 Sudeste 10 Sur 0 -- -- 93
2020-07-03 06:00:00 8.3 5 Sudeste 13 Sur 0 -- -- 91
2020-07-03 05:00:00 8.7 7 Sudeste 19 Sudeste 0 -- -- 91
2020-07-03 04:00:00 9.7 9 Sur 25 Sudeste 0 -- -- 92
2020-07-03 03:00:00 9.4 7 Sudeste 17 Sudeste 0 -- -- 92
2020-07-03 02:00:00 9.6 8 Sur 22 Sudeste 0 -- -- 92
2020-07-03 01:00:00 10 11 Sur 26 Sudeste 0 -- -- 90
2020-07-03 00:00:00 10.3 11 Sur 26 Sudeste 0 -- -- 88
2020-07-02 23:00:00 11 10 Sudeste 23 Sur 0 -- -- 85
2020-07-02 22:00:00 11.5 13 Sudeste 28 Sudeste 0 -- -- 82
2020-07-02 21:00:00 12.4 10 Sudeste 32 Este 0 -- -- 79
2020-07-02 20:00:00 13.5 14 Sur 33 Sur 0 -- -- 75
2020-07-02 19:00:00 14.9 16 Sur 37 Sudeste 0 -- -- 71
2020-07-02 18:00:00 16.9 19 Sudeste 40 Sur 0 -- -- 65
2020-07-02 17:00:00 17.3 21 Sudeste 42 Sudeste 0 -- -- 65
2020-07-02 16:00:00 17.6 18 Sudeste 37 Sudeste 0 -- -- 66
2020-07-02 15:00:00 17.3 17 Sudeste 38 Sudeste 0 -- -- 68
2020-07-02 14:00:00 17.6 22 Sur 38 Sudeste 0 -- -- 71
2020-07-02 13:00:00 17.3 18 Sudeste 33 Sudeste 0 -- -- 70
2020-07-02 12:00:00 16.7 15 Sur 31 Sur 0 -- -- 73
2020-07-02 11:00:00 14.8 15 Sudeste 25 Sudeste 0 -- -- 79
2020-07-02 10:00:00 14.3 10 Sudeste 28 Sudeste 0 -- -- 83
2020-07-02 09:00:00 13.1 12 Sur 24 Sur 0 -- -- 88
2020-07-02 08:00:00 12.7 13 Sur 20 Sudeste 0 -- -- 90
2020-07-02 07:00:00 12.9 10 Sur 21 Sudeste 0 -- -- 90
2020-07-02 06:00:00 13 11 Sur 20 Sudeste 0 -- -- 89
2020-07-02 05:00:00 13.2 8 Sur 22 Sudeste 0 -- -- 90
2020-07-02 04:00:00 13.4 8 Sur 20 Sudeste 0 -- -- 89
2020-07-02 03:00:00 13.3 7 Sur 20 Sudeste 0 -- -- 89
2020-07-02 02:00:00 13.7 9 Sur 24 Sudeste 0 -- -- 88
2020-07-02 01:00:00 14.1 7 Sur 21 Sur 0 -- -- 87
2020-07-02 00:00:00 14.4 11 Sur 24 Sudeste 0 -- -- 87
2020-07-01 23:00:00 14.3 13 Sur 22 Sudeste 0 -- -- 88
2020-07-01 22:00:00 14.7 9 Sudeste 29 Sudeste 0 -- -- 88
2020-07-01 21:00:00 16 14 Sur 36 Sur 0 -- -- 83
2020-07-01 20:00:00 17.5 21 Sur 37 Sudeste 0 -- -- 80
2020-07-01 19:00:00 19.3 22 Sur 41 Sur 0 -- -- 74
2020-07-01 18:00:00 20.7 20 Sur 39 Sudeste 0 -- -- 71
2020-07-01 17:00:00 21.7 20 Sur 45 Sur 0 -- -- 70
2020-07-01 16:00:00 22.7 22 Sudeste 42 Sur 0 -- -- 68
2020-07-01 15:00:00 23.4 22 Sur 36 Sur 0 -- -- 65
2020-07-01 14:00:00 24.2 19 Sudeste 32 Sudeste 0 -- -- 64
2020-07-01 13:00:00 23.3 10 Sur 22 Sur 0 -- -- 66
2020-07-01 12:00:00 21.5 9 Sur 21 Sur 0 -- -- 72
2020-07-01 11:00:00 19.8 9 Sur 17 Sur 0 -- -- 77
2020-07-01 10:00:00 18.6 10 Sur 22 Sudoeste 0 -- -- 82
2020-07-01 09:00:00 16.4 8 Sur 15 Sudeste 0 -- -- 92
2020-07-01 08:00:00 15.2 5 Sur 13 Sur 0 -- -- 96
2020-07-01 07:00:00 14.6 3 Sudeste 15 Sudeste 0 -- -- 96
2020-07-01 06:00:00 14.4 3 Sur 15 Sudeste 0 -- -- 96
2020-07-01 05:00:00 14 4 Sudeste 12 Este 0 -- -- 94
2020-07-01 04:00:00 14.4 5 Este 8 Este 0 -- -- 93
2020-07-01 03:00:00 15.3 3 Nordeste 8 Este 0 -- -- 91
2020-07-01 02:00:00 16.3 2 Este 7 Este 0 -- -- 90
2020-07-01 01:00:00 17.2 3 Norte 8 Sudeste 0 -- -- 88
2020-07-01 00:00:00 17.6 0 Calma 6 Sur 0 -- -- 84
2020-06-30 23:00:00 19.3 4 Sur 16 Sudeste 0 -- -- 78
2020-06-30 22:00:00 21.1 8 Sudeste 21 Sur 0 -- -- 73
2020-06-30 21:00:00 21.9 12 Sudeste 28 Sudeste 0 -- -- 73
2020-06-30 20:00:00 24.7 13 Sur 34 Sur 0 -- -- 65
2020-06-30 19:00:00 26.6 16 Sudeste 28 Sudeste 0 -- -- 58
2020-06-30 18:00:00 29.8 4 Este 19 Norte 0 -- -- 47
2020-06-30 17:00:00 30.8 7 Noroeste 23 Oeste 0 -- -- 36
2020-06-30 16:00:00 29.4 10 Noroeste 22 Noroeste 0 -- -- 37
2020-06-30 15:00:00 28.1 7 Sudoeste 16 Sudoeste 0 -- -- 46
2020-06-30 14:00:00 26.7 6 Sur 14 Sur 0 -- -- 49
2020-06-30 13:00:00 24.8 5 Sudoeste 15 Sudoeste 0 -- -- 55
2020-06-30 12:00:00 22.9 5 Sudoeste 15 Sur 0 -- -- 58
2020-06-30 11:00:00 20.6 7 Sudoeste 13 Sur 0 -- -- 59
2020-06-30 10:00:00 17.6 3 Norte 10 Sudeste 0 -- -- 65
2020-06-30 09:00:00 14.4 7 Sudeste 10 Este 0 -- -- 77
2020-06-30 08:00:00 10.3 3 Este 9 Este 0 -- -- 94
2020-06-30 07:00:00 8.8 5 Este 14 Este 0 -- -- 91
2020-06-30 06:00:00 9.4 3 Nordeste 15 Este 0 -- -- 91
2020-06-30 05:00:00 9.8 3 Nordeste 9 Este 0 -- -- 91
2020-06-30 04:00:00 10.5 0 Calma 10 Este 0 -- -- 87
2020-06-30 03:00:00 11.5 9 Este 17 Sudeste 0 -- -- 85
2020-06-30 02:00:00 12.9 5 Sudeste 14 Sudeste 0 -- -- 84
2020-06-30 01:00:00 13.4 8 Sur 19 Sudeste 0 -- -- 85
2020-06-30 00:00:00 13.8 8 Sudeste 26 Sur 0 -- -- 86
2020-06-29 23:00:00 14.7 15 Sur 32 Sudeste 0 -- -- 85
2020-06-29 22:00:00 16.1 15 Sur 30 Sudeste 0 -- -- 83
2020-06-29 21:00:00 18.3 17 Sudeste 28 Sudeste 0 -- -- 76
2020-06-29 20:00:00 19.8 17 Sudeste 31 Sur 0 -- -- 67
2020-06-29 19:00:00 20.5 19 Sur 38 Sudeste 0 -- -- 71
2020-06-29 18:00:00 21.4 18 Sudeste 34 Sudeste 0 -- -- 68
2020-06-29 17:00:00 21.6 18 Sudeste 35 Sur 0 -- -- 67
2020-06-29 16:00:00 21.6 15 Sudeste 33 Sudeste 0 -- -- 67
2020-06-29 15:00:00 21.3 13 Sudeste 26 Sudeste 0 -- -- 67
2020-06-29 14:00:00 20.7 13 Sur 27 Sudoeste 0 -- -- 69
2020-06-29 13:00:00 19 10 Sur 22 Sur 0 -- -- 74
2020-06-29 12:00:00 18.4 10 Sur 20 Sur 0 -- -- 76
2020-06-29 11:00:00 17.2 10 Sudeste 26 Sudeste 0 -- -- 77
2020-06-29 10:00:00 15.4 14 Sudeste 23 Sur 0 -- -- 84
2020-06-29 09:00:00 14.5 12 Sur 22 Sur 0 -- -- 89
2020-06-29 08:00:00 13.8 8 Sur 19 Sur 0 -- -- 92
2020-06-29 07:00:00 13.6 8 Sudeste 19 Sudeste 0 -- -- 93
2020-06-29 06:00:00 14 8 Sur 22 Sur 0 -- -- 91
2020-06-29 05:00:00 14.2 9 Sudeste 21 Sudeste 0 -- -- 92
2020-06-29 04:00:00 14.6 9 Sur 23 Sudeste 0 -- -- 92
2020-06-29 03:00:00 14.6 12 Sur 25 Sur 0 -- -- 93
2020-06-29 02:00:00 14.6 10 Sur 21 Sur 0 -- -- 94
2020-06-29 01:00:00 14.4 11 Sur 22 Sur 0 -- -- 93
2020-06-29 00:00:00 14.6 11 Sur 27 Sur 0 -- -- 92
2020-06-28 23:00:00 15 10 Sur 23 Sudeste 0 -- -- 91
2020-06-28 22:00:00 15.9 9 Sur 33 Sudeste 0 -- -- 88
2020-06-28 21:00:00 17.2 16 Sur 35 Sur 0 -- -- 82
2020-06-28 20:00:00 19.2 16 Sudeste 37 Sudeste 0 -- -- 76
2020-06-28 19:00:00 22.2 20 Sur 36 Sur 0 -- -- 66
2020-06-28 18:00:00 23.2 18 Sur 32 Sur 0 -- -- 64
2020-06-28 17:00:00 24.4 16 Sudeste 32 Sudeste 0 -- -- 61
2020-06-28 16:00:00 23.9 15 Sudeste 29 Este 0 -- -- 62
2020-06-28 15:00:00 24.2 5 Sudeste 15 Sudeste 0 -- -- 56
2020-06-28 14:00:00 24.2 5 Sudoeste 13 Oeste 0 -- -- 55
2020-06-28 13:00:00 22.1 6 Sur 15 Oeste 0 -- -- 61
2020-06-28 12:00:00 20.5 5 Sur 23 Oeste 0 -- -- 67
2020-06-28 11:00:00 18.9 8 Noroeste 14 Noroeste 0 -- -- 73
2020-06-28 10:00:00 16.7 3 Sudeste 7 Sudeste 0 -- -- 81
2020-06-28 09:00:00 15.8 3 Sudeste 8 Sudeste 0 -- -- 87
2020-06-28 08:00:00 14.1 6 Sudeste 12 Sudeste 0 -- -- 92
2020-06-28 07:00:00 14.1 4 Este 13 Sudeste 0 -- -- 94
2020-06-28 06:00:00 14.3 8 Este 11 Este 0 -- -- 93
2020-06-28 05:00:00 14.9 4 Sudeste 9 Este 0 -- -- 93
2020-06-28 04:00:00 14.9 4 Sudeste 10 Sudeste 0 -- -- 93
2020-06-28 03:00:00 14.9 5 Sudeste 14 Sudeste 0 -- -- 94
2020-06-28 02:00:00 14.8 6 Sudeste 13 Sur 0 -- -- 94
2020-06-28 01:00:00 14.8 8 Sur 18 Sudeste 0 -- -- 94
2020-06-28 00:00:00 15 9 Sur 22 Sudeste 0 -- -- 93
2020-06-27 23:00:00 15.6 10 Sur 27 Sur 0 -- -- 90
2020-06-27 22:00:00 17.7 10 Sudeste 24 Este 0 -- -- 80
2020-06-27 21:00:00 20.5 10 Sudeste 19 Sur 0 -- -- 69
2020-06-27 20:00:00 23.7 8 Norte 23 Norte 0 -- -- 49
2020-06-27 19:00:00 24.8 6 Noroeste 22 Noroeste 0 -- -- 47
2020-06-27 18:00:00 24.2 12 Norte 23 Norte 0 -- -- 52
2020-06-27 17:00:00 25.4 14 Noroeste 31 Noroeste 0 -- -- 49
2020-06-27 16:00:00 24.6 15 Noroeste 31 Noroeste 0 -- -- 51
2020-06-27 15:00:00 23.6 15 Noroeste 31 Noroeste 0 -- -- 53
2020-06-27 14:00:00 21.9 12 Norte 26 Noroeste 0 -- -- 58
2020-06-27 13:00:00 21.3 15 Norte 26 Noroeste 0 -- -- 61
2020-06-27 12:00:00 20.6 12 Noroeste 23 Norte 0 -- -- 63
2020-06-27 11:00:00 18.6 14 Norte 28 Norte 0 -- -- 70
2020-06-27 10:00:00 17 8 Noroeste 20 Norte 0 -- -- 78
2020-06-27 09:00:00 14.9 6 Oeste 10 Noroeste 0 -- -- 86
2020-06-27 08:00:00 10 2 Este 10 Este 0 -- -- 97
2020-06-27 07:00:00 8.6 6 Este 12 Este 0 -- -- 96
2020-06-27 06:00:00 9.1 3 Nordeste 11 Este 0 -- -- 95
2020-06-27 05:00:00 9.3 2 Este 9 Este 0 -- -- 94
2020-06-27 04:00:00 10 0 Calma 13 Este 0 -- -- 91
2020-06-27 03:00:00 10.5 9 Este 14 Este 0 -- -- 91
2020-06-27 02:00:00 11.1 2 Nordeste 10 Este 0 -- -- 84
2020-06-27 01:00:00 12 0 Calma 7 Sudeste 0 -- -- 83
2020-06-27 00:00:00 13.5 4 Sur 11 Sur 0 -- -- 74
2020-06-26 23:00:00 14.8 8 Sudeste 23 Sudeste 0 -- -- 69
2020-06-26 22:00:00 16.3 14 Sur 26 Sudeste 0 -- -- 66
2020-06-26 21:00:00 18.2 12 Sur 33 Sur 0 -- -- 68
2020-06-26 20:00:00 19.8 16 Sudeste 37 Sur 0 -- -- 68
2020-06-26 19:00:00 21.1 17 Sudeste 33 Sudeste 0 -- -- 67
2020-06-26 18:00:00 25.9 13 Norte 28 Norte 0 -- -- 38
2020-06-26 17:00:00 26.1 14 Noroeste 38 Oeste 0 -- -- 40
2020-06-26 16:00:00 25.2 15 Noroeste 34 Noroeste 0 -- -- 47
2020-06-26 15:00:00 23.8 9 Norte 24 Oeste 0 -- -- 60
2020-06-26 14:00:00 23.2 10 Noroeste 18 Noroeste 0 -- -- 69
2020-06-26 13:00:00 21.6 6 Noroeste 12 Sur 0 -- -- 74
2020-06-26 12:00:00 20.1 5 Este 13 Sudeste 0 -- -- 79
2020-06-26 11:00:00 17.8 3 Sudeste 6 Sudoeste 0 -- -- 85
2020-06-26 10:00:00 15.9 3 Sur 7 Este 0 -- -- 93
2020-06-26 09:00:00 14.6 3 Este 6 Este 0 -- -- 97
2020-06-26 08:00:00 13.6 5 Este 10 Este 0 -- -- 97
2020-06-26 07:00:00 13.7 6 Sudeste 10 Sudeste 0 -- -- 98
2020-06-26 06:00:00 13.7 5 Sudeste 12 Sudeste 0 -- -- 99
2020-06-26 05:00:00 13.1 7 Sudeste 12 Este 0 -- -- 99
2020-06-26 04:00:00 13.3 7 Sudeste 12 Este 0 -- -- 98
2020-06-26 03:00:00 13.6 5 Sudeste 16 Este 0 -- -- 98
2020-06-26 02:00:00 14.2 8 Sudeste 13 Este 0 -- -- 97
2020-06-26 01:00:00 14.7 2 Sudeste 20 Sudeste 0 -- -- 95
2020-06-26 00:00:00 15.3 11 Sur 18 Sudeste 0 -- -- 94
2020-06-25 23:00:00 15.9 12 Sudeste 18 Sudeste 0 -- -- 94
2020-06-25 22:00:00 17.4 7 Sur 24 Sur 0.8 -- -- 92
2020-06-25 21:00:00 18.3 6 Sudeste 15 Sudeste 1.8 -- -- 92
2020-06-25 20:00:00 20.3 9 Sur 19 Sudeste 0.8 -- -- 82
2020-06-25 19:00:00 22.2 17 Sur 32 Sudeste 0 -- -- 73
2020-06-25 18:00:00 23.3 10 Sur 19 Sur 0 -- -- 68
2020-06-25 17:00:00 20.6 10 Sudeste 17 Sudeste 0.6 -- -- 83
2020-06-25 16:00:00 19.2 7 Sudeste 12 Sudeste 0.2 -- -- 87
2020-06-25 15:00:00 18.7 5 Sudeste 9 Este 0.4 -- -- 91
2020-06-25 14:00:00 19.2 4 Nordeste 14 Sudeste 0.2 -- -- 86
2020-06-25 13:00:00 20 8 Sudeste 19 Sudeste 0 -- -- 78
2020-06-25 12:00:00 21.4 3 Sudoeste 10 Sudoeste 0 -- -- 64
2020-06-25 11:00:00 20.8 4 Oeste 23 Noroeste 0 -- -- 68
2020-06-25 10:00:00 19.1 6 Norte 13 Este 0 -- -- 74
2020-06-25 09:00:00 16.1 5 Este 19 Este 1 -- -- 87
2020-06-25 08:00:00 17.3 6 Nordeste 32 Norte 0 -- -- 78
2020-06-25 07:00:00 15.2 3 Sur 20 Nordeste 0.2 -- -- 89
2020-06-25 06:00:00 14.9 6 Este 26 Noroeste 0 -- -- 92
2020-06-25 05:00:00 14.5 7 Este 11 Este 0 -- -- 91
2020-06-25 04:00:00 14.7 3 Este 11 Este 0 -- -- 93
2020-06-25 03:00:00 15.3 3 Este 11 Sudeste 0 -- -- 92
2020-06-25 02:00:00 16.6 7 Sudoeste 22 Noroeste 0.8 -- -- 87
2020-06-25 01:00:00 17.3 6 Nordeste 14 Sudeste 0.2 -- -- 88
2020-06-25 00:00:00 17.5 3 Sur 9 Sudeste 0 -- -- 84
2020-06-24 23:00:00 19.2 4 Norte 16 Sudeste 0 -- -- 77
2020-06-24 22:00:00 20.6 6 Sudeste 22 Sudeste 0 -- -- 71
2020-06-24 21:00:00 22.2 5 Este 12 Este 0 -- -- 72
2020-06-24 20:00:00 23.4 4 Norte 7 Norte 0 -- -- 71
2020-06-24 19:00:00 23.7 2 Oeste 9 Oeste 0 -- -- 60
2020-06-24 18:00:00 19.9 3 Norte 19 Este 0.2 -- -- 78
2020-06-24 17:00:00 17.8 8 Este 48 Norte 3.4 -- -- 82
2020-06-24 16:00:00 27.4 17 Norte 28 Norte 0 -- -- 38
2020-06-24 15:00:00 29.7 8 Oeste 16 Oeste 0 -- -- 37
2020-06-24 14:00:00 28.7 10 Noroeste 19 Oeste 0 -- -- 38
2020-06-24 13:00:00 28.5 7 Noroeste 20 Oeste 0 -- -- 41
2020-06-24 12:00:00 27.3 7 Oeste 15 Oeste 0 -- -- 42
2020-06-24 11:00:00 24.3 5 Norte 12 Norte 0 -- -- 51
2020-06-24 10:00:00 21.8 8 Noroeste 12 Norte 0 -- -- 54
2020-06-24 09:00:00 18.7 3 Nordeste 7 Norte 0 -- -- 61
2020-06-24 08:00:00 14.6 3 Este 17 Este 0 -- -- 82
2020-06-24 07:00:00 13.9 8 Este 14 Este 0 -- -- 81
2020-06-24 06:00:00 14.1 0 Calma 8 Sudeste 0 -- -- 79
2020-06-24 05:00:00 16.2 2 Norte 19 Este 0 -- -- 70
2020-06-24 04:00:00 17.7 4 Nordeste 7 Sur 0 -- -- 67
2020-06-24 03:00:00 20.8 4 Sur 43 Norte 0 -- -- 56
2020-06-24 02:00:00 23.4 15 Norte 43 Noroeste 0 -- -- 45
2020-06-24 01:00:00 19.4 7 Este 16 Noroeste 0 -- -- 67
2020-06-24 00:00:00 17.5 3 Este 5 Norte 0 -- -- 72
2020-06-23 23:00:00 19.8 3 Noroeste 9 Sudeste 0 -- -- 64
2020-06-23 22:00:00 23.6 6 Sudeste 15 Sudeste 0 -- -- 53
2020-06-23 21:00:00 26.4 4 Sudeste 22 Este 0 -- -- 49
2020-06-23 20:00:00 28.4 10 Sudeste 27 Sur 0 -- -- 46
2020-06-23 19:00:00 29.9 16 Sur 28 Sudeste 0 -- -- 45
2020-06-23 18:00:00 32.6 3 Nordeste 16 Noroeste 0 -- -- 29
2020-06-23 17:00:00 31.8 5 Norte 19 Norte 0 -- -- 31
2020-06-23 16:00:00 32 12 Norte 22 Norte 0 -- -- 29
2020-06-23 15:00:00 31.1 5 Oeste 22 Noroeste 0 -- -- 30
2020-06-23 14:00:00 29.9 5 Nordeste 13 Norte 0 -- -- 34
2020-06-23 13:00:00 27.7 5 Norte 11 Norte 0 -- -- 37
2020-06-23 12:00:00 25.1 7 Norte 10 Norte 0 -- -- 42
2020-06-23 11:00:00 22.7 7 Norte 12 Norte 0 -- -- 46
2020-06-23 10:00:00 18.6 5 Norte 9 Norte 0 -- -- 58
2020-06-23 09:00:00 14.4 5 Este 11 Este 0 -- -- 74
2020-06-23 08:00:00 9.5 7 Este 19 Este 0 -- -- 86
2020-06-23 07:00:00 8.2 3 Este 16 Este 0 -- -- 90
2020-06-23 06:00:00 8.9 11 Este 18 Este 0 -- -- 90
2020-06-23 05:00:00 9.8 10 Este 14 Este 0 -- -- 92
2020-06-23 04:00:00 10.6 6 Este 16 Este 0 -- -- 91
2020-06-23 03:00:00 12.4 11 Este 16 Este 0 -- -- 90
2020-06-23 02:00:00 14.7 12 Este 15 Este 0 -- -- 89
2020-06-23 01:00:00 15.4 0 Calma 16 Sudeste 0 -- -- 85
2020-06-23 00:00:00 16.2 10 Sudeste 14 Sudeste 0 -- -- 84
2020-06-22 23:00:00 17.5 8 Sudeste 14 Sudeste 0 -- -- 81
2020-06-22 22:00:00 20.5 8 Sudeste 17 Sudeste 0 -- -- 71
2020-06-22 21:00:00 23.2 9 Sudeste 23 Sur 0 -- -- 64
2020-06-22 20:00:00 25.3 10 Sudeste 25 Este 0 -- -- 55
2020-06-22 19:00:00 26.7 11 Sudeste 31 Sudeste 0 -- -- 45
2020-06-22 18:00:00 27.4 12 Sudeste 24 Sudeste 0 -- -- 39
2020-06-22 17:00:00 27.8 10 Sudeste 25 Sur 0 -- -- 38
2020-06-22 16:00:00 27.3 9 Sur 20 Sur 0 -- -- 40
2020-06-22 15:00:00 25.8 8 Sudoeste 23 Sudoeste 0 -- -- 44
2020-06-22 14:00:00 24.8 8 Sudoeste 21 Sur 0 -- -- 43
2020-06-22 13:00:00 23.4 11 Sudeste 25 Sur 0 -- -- 43
2020-06-22 12:00:00 21.7 9 Sudeste 18 Sur 0 -- -- 48
2020-06-22 11:00:00 19 8 Sudoeste 14 Sur 0 -- -- 65
2020-06-22 10:00:00 17.1 8 Sudeste 14 Sur 0 -- -- 74
2020-06-22 09:00:00 14.8 5 Sur 15 Sur 0 -- -- 84
2020-06-22 08:00:00 13.5 6 Sudeste 15 Sur 0 -- -- 88
2020-06-22 07:00:00 13.3 5 Sur 14 Sudeste 0 -- -- 89
2020-06-22 06:00:00 13.6 6 Sur 15 Sur 0 -- -- 90
2020-06-22 05:00:00 13.7 7 Sur 20 Sudeste 0 -- -- 90
2020-06-22 04:00:00 13.9 8 Sudeste 18 Sudeste 0 -- -- 89
2020-06-22 03:00:00 13.9 11 Sur 23 Sudeste 0 -- -- 91
2020-06-22 02:00:00 13.5 8 Sur 24 Sur 0 -- -- 92
2020-06-22 01:00:00 13.3 13 Sur 26 Sudeste 0 -- -- 92
2020-06-22 00:00:00 13.6 12 Sur 28 Sur 0 -- -- 91
2020-06-21 23:00:00 13.9 9 Sudeste 28 Sur 0 -- -- 90
2020-06-21 22:00:00 14.6 13 Sudeste 33 Sur 0 -- -- 87
2020-06-21 21:00:00 16.6 14 Sudeste 33 Sur 0 -- -- 79
2020-06-21 20:00:00 18.4 14 Sudeste 39 Sudeste 0 -- -- 71
2020-06-21 19:00:00 20 22 Sur 36 Sur 0 -- -- 65
2020-06-21 18:00:00 22.3 13 Sudeste 39 Este 0 -- -- 62
2020-06-21 17:00:00 23.2 16 Sudeste 40 Sur 0 -- -- 61
2020-06-21 16:00:00 24.7 10 Sur 22 Sur 0 -- -- 50
2020-06-21 15:00:00 25 7 Noroeste 16 Sudoeste 0 -- -- 44
2020-06-21 14:00:00 23.4 9 Sur 20 Sudeste 0 -- -- 50
2020-06-21 13:00:00 22 8 Sudoeste 17 Sur 0 -- -- 52
2020-06-21 12:00:00 20.6 6 Sudoeste 18 Sur 0 -- -- 54
2020-06-21 11:00:00 19.5 9 Sudeste 18 Sur 0 -- -- 58
2020-06-21 10:00:00 17.6 5 Sur 10 Sudoeste 0 -- -- 68
2020-06-21 09:00:00 14.2 2 Sudeste 6 Sudeste 0 -- -- 86
2020-06-21 08:00:00 9.6 5 Sudeste 8 Este 0 -- -- 97
2020-06-21 07:00:00 8.6 6 Este 15 Este 0 -- -- 96
2020-06-21 06:00:00 8.9 4 Este 12 Este 0 -- -- 96
2020-06-21 05:00:00 9.5 4 Este 13 Este 0 -- -- 95
2020-06-21 04:00:00 10.1 11 Este 14 Este 0 -- -- 94
2020-06-21 03:00:00 11.2 2 Norte 9 Este 0 -- -- 91
2020-06-21 02:00:00 12.6 4 Sur 18 Sur 0 -- -- 90
2020-06-21 01:00:00 13.3 8 Sur 17 Sur 0 -- -- 90
2020-06-21 00:00:00 13.9 7 Sudeste 24 Sudeste 0 -- -- 88
2020-06-20 23:00:00 14.4 12 Sur 24 Sur 0 -- -- 87
2020-06-20 22:00:00 15.7 13 Sur 30 Sudeste 0 -- -- 81
2020-06-20 21:00:00 18.8 14 Sudeste 31 Sudeste 0 -- -- 71
2020-06-20 20:00:00 22.5 15 Sudeste 25 Sudeste 0 -- -- 59
2020-06-20 19:00:00 26.3 10 Norte 21 Noroeste 0 -- -- 34
2020-06-20 18:00:00 26.6 8 Norte 25 Noroeste 0 -- -- 35
2020-06-20 17:00:00 26.3 9 Noroeste 25 Oeste 0 -- -- 36
2020-06-20 16:00:00 25.6 10 Noroeste 23 Noroeste 0 -- -- 37
2020-06-20 15:00:00 25.1 11 Noroeste 26 Noroeste 0 -- -- 40
2020-06-20 14:00:00 23.4 9 Noroeste 21 Noroeste 0 -- -- 47
2020-06-20 13:00:00 21.7 9 Noroeste 21 Noroeste 0 -- -- 48
2020-06-20 12:00:00 19.6 5 Norte 13 Norte 0 -- -- 58
2020-06-20 11:00:00 17.3 6 Sudoeste 10 Sudoeste 0 -- -- 67
2020-06-20 10:00:00 14.3 4 Norte 9 Noroeste 0 -- -- 78
2020-06-20 09:00:00 11.8 3 Norte 9 Este 0 -- -- 89
2020-06-20 08:00:00 7.4 9 Este 14 Este 0 -- -- 97
2020-06-20 07:00:00 6.2 7 Este 11 Este 0 -- -- 96
2020-06-20 06:00:00 6.6 0 Calma 10 Este 0 -- -- 94
2020-06-20 05:00:00 7.4 7 Este 10 Este 0 -- -- 94
2020-06-20 04:00:00 8.1 0 Calma 9 Sudeste 0 -- -- 91
2020-06-20 03:00:00 9.1 6 Sudeste 13 Sur 0 -- -- 90
2020-06-20 02:00:00 10.2 7 Sudeste 14 Sur 0 -- -- 89
2020-06-20 01:00:00 10.4 5 Sur 18 Sur 0 -- -- 88
2020-06-20 00:00:00 11.2 9 Sudeste 23 Sudeste 0 -- -- 84
2020-06-19 23:00:00 12.2 10 Sur 30 Sur 0 -- -- 78
2020-06-19 22:00:00 12.5 16 Sur 30 Sur 0 -- -- 80
2020-06-19 21:00:00 14 13 Sur 39 Sudeste 0 -- -- 81
2020-06-19 20:00:00 15.6 18 Sudeste 44 Sudeste 0 -- -- 79
2020-06-19 19:00:00 18.1 18 Sudeste 39 Sudeste 0 -- -- 69
2020-06-19 18:00:00 21.6 19 Sur 31 Sudeste 0 -- -- 59
2020-06-19 17:00:00 23.8 6 Sur 16 Noroeste 0 -- -- 40
2020-06-19 16:00:00 23.1 8 Norte 18 Norte 0 -- -- 44
2020-06-19 15:00:00 21.9 5 Oeste 17 Noroeste 0 -- -- 48
2020-06-19 14:00:00 20.2 4 Norte 17 Norte 0 -- -- 53
2020-06-19 13:00:00 18.3 8 Nordeste 17 Este 0 -- -- 60
2020-06-19 12:00:00 16.5 5 Sudoeste 15 Sudeste 0 -- -- 67
2020-06-19 11:00:00 14.4 7 Sur 14 Sudoeste 0 -- -- 71
2020-06-19 10:00:00 10.9 2 Este 8 Este 0 -- -- 92
2020-06-19 09:00:00 7.9 3 Este 9 Este 0 -- -- 99
2020-06-19 08:00:00 5 7 Este 14 Este 0 -- -- 98
2020-06-19 07:00:00 4.5 6 Este 13 Este 0 -- -- 98
2020-06-19 06:00:00 5 4 Este 10 Este 0 -- -- 98
2020-06-19 05:00:00 5.6 4 Este 12 Este 0 -- -- 96
2020-06-19 04:00:00 6.9 5 Este 10 Este 0 -- -- 95
2020-06-19 03:00:00 8 5 Sudeste 13 Sur 0 -- -- 95
2020-06-19 02:00:00 8.7 8 Sudeste 18 Sur 0 -- -- 95
2020-06-19 01:00:00 9 5 Sur 19 Sudeste 0 -- -- 94
2020-06-19 00:00:00 9.5 8 Sur 21 Sudeste 0 -- -- 92
2020-06-18 23:00:00 10 10 Sur 22 Sur 0 -- -- 91
2020-06-18 22:00:00 11 9 Sudeste 25 Sur 0 -- -- 90
2020-06-18 21:00:00 12.8 9 Sudeste 24 Sudeste 0 -- -- 83
2020-06-18 20:00:00 14.5 11 Sudeste 33 Sur 0 -- -- 78
2020-06-18 19:00:00 15.9 14 Sudeste 33 Sudeste 0 -- -- 69
2020-06-18 18:00:00 17.1 17 Sur 32 Sudeste 0 -- -- 64
2020-06-18 17:00:00 16.4 15 Sudeste 35 Sur 0 -- -- 66
2020-06-18 16:00:00 16.8 19 Sur 32 Sur 0 -- -- 64
2020-06-18 15:00:00 16.8 12 Sudeste 25 Este 0 -- -- 66
2020-06-18 14:00:00 17.8 9 Oeste 19 Noroeste 0 -- -- 58
2020-06-18 13:00:00 15.7 7 Sudoeste 14 Sudoeste 0 -- -- 64
2020-06-18 12:00:00 13.9 5 Sur 16 Sur 0 -- -- 75
2020-06-18 11:00:00 11.9 7 Sur -- -- -- -- -- 83
2020-06-18 10:00:00 10.7 6 Sudeste 18 Sudeste 0 -- -- 88
2020-06-18 09:00:00 9.8 7 Sur 13 Sur 0 -- -- 95
2020-06-18 08:00:00 8.4 4 Este 9 Sudeste 0 -- -- 99
2020-06-18 07:00:00 7.6 4 Sudeste 9 Sudeste 0 -- -- 98
2020-06-18 06:00:00 8.2 4 Sudeste 9 Sudeste 0 -- -- 97
2020-06-18 05:00:00 8.6 3 Sudeste 12 Sudeste 0 -- -- 97
2020-06-18 04:00:00 8.9 4 Sudeste 13 Sur 0 -- -- 97
2020-06-18 03:00:00 8.9 7 Sudeste 15 Sur 0.4 -- -- 96
2020-06-18 02:00:00 9.1 5 Sur 12 Sur 0.4 -- -- 96
2020-06-18 01:00:00 9.1 8 Sudeste 14 Sudeste 1.4 -- -- 95
2020-06-18 00:00:00 9.5 5 Sur 20 Sudeste 0.4 -- -- 93
2020-06-17 23:00:00 9.8 7 Sudeste 20 Sudeste 0 -- -- 92
2020-06-17 22:00:00 10.1 11 Sudeste 27 Sudeste 0 -- -- 91
2020-06-17 21:00:00 10.8 15 Sur 28 Sur 0 -- -- 88
2020-06-17 20:00:00 12.1 14 Sur 27 Sur 0 -- -- 82
2020-06-17 19:00:00 14.3 15 Sur 30 Sur 0 -- -- 74
2020-06-17 18:00:00 14.9 10 Sudeste 32 Sudeste 0 -- -- 75
2020-06-17 17:00:00 15.2 14 Sur 25 Sur 0 -- -- 70
2020-06-17 16:00:00 14.7 4 Este 27 Sudeste 0 -- -- 69
2020-06-17 15:00:00 15.2 10 Sudeste 21 Sur 0 -- -- 64
2020-06-17 14:00:00 16.5 13 Sur 24 Sur 0 -- -- 61
2020-06-17 13:00:00 14.3 18 Sur 27 Sudeste 0 -- -- 68
2020-06-17 12:00:00 13.5 4 Sudoeste 8 Sudoeste 0 -- -- 70
2020-06-17 11:00:00 12.6 3 Sudoeste 10 Sudoeste 0 -- -- 77
2020-06-17 10:00:00 11.7 6 Sur 10 Sur 0 -- -- 88
2020-06-17 09:00:00 9.8 4 Sur 6 Sur 0 -- -- 94
2020-06-17 08:00:00 9.1 2 Noroeste 3 Noroeste 0 -- -- 96
2020-06-17 07:00:00 9.2 0 Calma 6 Sudoeste 0 -- -- 96
2020-06-17 06:00:00 9.3 3 Sudoeste 5 Este 0 -- -- 96
2020-06-17 05:00:00 9.5 2 Sur 8 Sur 0.4 -- -- 95
2020-06-17 04:00:00 9.6 0 Calma 9 Sur 0 -- -- 94
2020-06-17 03:00:00 9.7 0 Calma 8 Sur 0.2 -- -- 93
2020-06-17 02:00:00 9.8 4 Sur 15 Sur 0 -- -- 93
2020-06-17 01:00:00 10.1 8 Sur 15 Sur 0 -- -- 90
2020-06-17 00:00:00 10.3 6 Sur 13 Sur 0 -- -- 91
2020-06-16 23:00:00 10.2 8 Sur 22 Sur 0 -- -- 91
2020-06-16 22:00:00 10.5 13 Sur 28 Sur 0 -- -- 90
2020-06-16 21:00:00 11.4 13 Sur 29 Sudeste 0 -- -- 88
2020-06-16 20:00:00 12.2 12 Sur 28 Sur 0 -- -- 85
2020-06-16 19:00:00 14.4 15 Sur 31 Sur 0 -- -- 79
2020-06-16 18:00:00 14.9 13 Sudeste 31 Sur 0 -- -- 82
2020-06-16 17:00:00 12.8 8 Sur 30 Sudeste 1.2 -- -- 85
2020-06-16 16:00:00 16.7 6 Norte 38 Norte 0 -- -- 62
2020-06-16 15:00:00 17.5 15 Norte 37 Norte 0 -- -- 63
2020-06-16 14:00:00 18.1 14 Norte 33 Norte 0 -- -- 60
2020-06-16 13:00:00 17.1 12 Noroeste 28 Norte 0 -- -- 63
2020-06-16 12:00:00 14.9 8 Noroeste 19 Oeste 0 -- -- 71
2020-06-16 11:00:00 13.6 9 Noroeste 20 Oeste 0 -- -- 77
2020-06-16 10:00:00 12.7 8 Noroeste 14 Noroeste 0 -- -- 83
2020-06-16 09:00:00 11.3 3 Sudoeste 10 Norte 0 -- -- 91
2020-06-16 08:00:00 9.2 4 Este 5 Este 0 -- -- 97
2020-06-16 07:00:00 8.5 0 Calma 7 Este 0 -- -- 97
2020-06-16 06:00:00 8.6 2 Este 8 Este 0 -- -- 97
2020-06-16 05:00:00 8.3 5 Este 10 Este 0 -- -- 96
2020-06-16 04:00:00 9.3 0 Calma 4 Norte 0 -- -- 95
2020-06-16 03:00:00 9.1 3 Sudeste 9 Sudeste 0 -- -- 95
2020-06-16 02:00:00 9.3 4 Sudeste 11 Sudeste 0 -- -- 95
2020-06-16 01:00:00 9.7 8 Sur 19 Sudeste 0 -- -- 94
2020-06-16 00:00:00 10.1 9 Sudeste 22 Sudeste 0 -- -- 92
2020-06-15 23:00:00 10.5 10 Sur 24 Sur 0 -- -- 91
2020-06-15 22:00:00 11.2 12 Sur 25 Sur 0 -- -- 89
2020-06-15 21:00:00 12.4 13 Sur 24 Sur 0 -- -- 84
2020-06-15 20:00:00 13.6 15 Sur 26 Sur 0 -- -- 81
2020-06-15 19:00:00 14.4 9 Sudeste 33 Sudeste 0 -- -- 77
2020-06-15 18:00:00 16.4 11 Sur 24 Sur 0 -- -- 70
2020-06-15 17:00:00 18.3 10 Sur 19 Sudeste 0 -- -- 57
2020-06-15 16:00:00 18.1 4 Sur 19 Sudoeste 0 -- -- 53
2020-06-15 15:00:00 18.6 5 Sudoeste 21 Sudoeste 0 -- -- 52
2020-06-15 14:00:00 17.7 6 Nordeste 15 Noroeste 0 -- -- 56
2020-06-15 13:00:00 16.6 7 Oeste 13 Sudoeste 0 -- -- 59
2020-06-15 12:00:00 15.1 5 Oeste 12 Noroeste 0 -- -- 66
2020-06-15 11:00:00 13.6 4 Norte 15 Sudoeste 0 -- -- 76
2020-06-15 10:00:00 11.9 0 Calma 8 Sudeste 0 -- -- 83
2020-06-15 09:00:00 10.2 6 Este 15 Este 0 -- -- 95
2020-06-15 08:00:00 8.6 6 Este 10 Este 0 -- -- 95
2020-06-15 07:00:00 8.4 0 Calma 10 Este 0 -- -- 97
2020-06-15 06:00:00 8 6 Este 10 Este 0 -- -- 97
2020-06-15 05:00:00 7.7 0 Calma 5 Sudeste 0 -- -- 93
2020-06-15 04:00:00 9.6 0 Calma 7 Sudeste 0 -- -- 90
2020-06-15 03:00:00 10.3 5 Sudeste 11 Sudeste 0 -- -- 91
2020-06-15 02:00:00 10.4 3 Sudeste 13 Sur 0 -- -- 90
2020-06-15 01:00:00 10.6 8 Sur 15 Sudeste 0 -- -- 90
2020-06-15 00:00:00 10.6 7 Sur 20 Sudeste 0 -- -- 89
2020-06-14 23:00:00 10.8 12 Sur 29 Sudeste 0 -- -- 88
2020-06-14 22:00:00 11.3 15 Sur 29 Sudeste 0 -- -- 84
2020-06-14 21:00:00 12.7 16 Sur 31 Sudeste 0 -- -- 79
2020-06-14 20:00:00 15.2 11 Sudeste 24 Sur 0 -- -- 71
2020-06-14 19:00:00 16.7 8 Norte 20 Norte 0 -- -- 56
2020-06-14 18:00:00 17.8 10 Norte 28 Norte 0 -- -- 53
2020-06-14 17:00:00 18.5 13 Norte 30 Norte 0 -- -- 49
2020-06-14 16:00:00 16.9 14 Norte 32 Noroeste 0 -- -- 50
2020-06-14 15:00:00 17.6 15 Noroeste 32 Norte 0 -- -- 51
2020-06-14 14:00:00 16.7 14 Norte 36 Norte 0 -- -- 53
2020-06-14 13:00:00 15.2 13 Norte 30 Norte 0 -- -- 60
2020-06-14 12:00:00 14.9 13 Norte 26 Noroeste 0 -- -- 59
2020-06-14 11:00:00 12.7 10 Noroeste 21 Noroeste 0 -- -- 70
2020-06-14 10:00:00 10.2 4 Norte 11 Norte 0 -- -- 88
2020-06-14 09:00:00 7.9 4 Sudoeste 6 Sudoeste 0 -- -- 99
2020-06-14 08:00:00 7 0 Calma 8 Este 0 -- -- 99
2020-06-14 07:00:00 6.1 6 Este 11 Este 0 -- -- 98
2020-06-14 06:00:00 5.8 7 Este 13 Este 0 -- -- 96
2020-06-14 05:00:00 6.1 5 Este 10 Este 0 -- -- 97
2020-06-14 04:00:00 5.9 2 Sudeste 6 Sudeste 0 -- -- 97
2020-06-14 03:00:00 5.4 0 Calma 5 Sudoeste 0 -- -- 95
2020-06-14 02:00:00 6.1 2 Este 10 Sudeste 0 -- -- 92
2020-06-14 01:00:00 7.4 0 Calma 5 Sudeste 0 -- -- 90
2020-06-14 00:00:00 9.4 0 Calma 5 Norte 0 -- -- 86
2020-06-13 23:00:00 10.4 0 Calma 8 Norte 0 -- -- 85
2020-06-13 22:00:00 12.4 3 Norte 22 Noroeste 0 -- -- 77
2020-06-13 21:00:00 13.8 8 Norte 26 Norte 0 -- -- 74
2020-06-13 20:00:00 13.7 14 Norte 27 Norte 0 -- -- 75
2020-06-13 19:00:00 14.3 9 Norte 23 Norte 0 -- -- 66
2020-06-13 18:00:00 14.9 8 Norte 19 Noroeste 0 -- -- 64
2020-06-13 17:00:00 15 11 Norte 36 Noroeste 0 -- -- 62
2020-06-13 16:00:00 16 18 Norte 35 Noroeste 0 -- -- 56
2020-06-13 15:00:00 16.1 16 Noroeste 36 Norte 0 -- -- 59
2020-06-13 14:00:00 14.6 11 Norte 36 Norte 0 -- -- 63
2020-06-13 13:00:00 14.1 18 Norte 36 Norte 0 -- -- 64
2020-06-13 12:00:00 13.8 19 Norte 34 Noroeste 0 -- -- 65
2020-06-13 11:00:00 12.7 14 Norte 30 Norte 0 -- -- 69
2020-06-13 10:00:00 10.6 14 Norte 32 Noroeste 0 -- -- 78
2020-06-13 09:00:00 9.7 15 Norte 30 Norte 0 -- -- 81
2020-06-13 08:00:00 8.8 8 Norte 23 Norte 0 -- -- 86
2020-06-13 07:00:00 8 8 Noroeste 29 Noroeste 0 -- -- 88
2020-06-13 06:00:00 8.5 14 Norte 31 Norte 0 -- -- 86
2020-06-13 05:00:00 8.9 8 Norte 19 Noroeste 0 -- -- 86
2020-06-13 04:00:00 9 12 Noroeste 24 Noroeste 0 -- -- 86
2020-06-13 03:00:00 9.2 13 Norte 22 Norte 0 -- -- 86
2020-06-13 02:00:00 9.3 5 Noroeste 10 Oeste 0 -- -- 86
2020-06-13 01:00:00 9.2 4 Oeste 14 Noroeste 0 -- -- 83
2020-06-13 00:00:00 9.7 4 Noroeste 15 Oeste 0 -- -- 84
2020-06-12 23:00:00 9.8 5 Noroeste 18 Noroeste 0 -- -- 81
2020-06-12 22:00:00 11.4 8 Noroeste 20 Noroeste 0 -- -- 75
2020-06-12 21:00:00 12.4 15 Norte 33 Nordeste 0 -- -- 69
2020-06-12 20:00:00 13.2 12 Norte 26 Norte 0 -- -- 65
2020-06-12 19:00:00 13.7 12 Norte 27 Norte 0 -- -- 66
2020-06-12 18:00:00 13.4 13 Noroeste 30 Noroeste 0.2 -- -- 73
2020-06-12 17:00:00 10.4 19 Norte 32 Norte 0.6 -- -- 82
2020-06-12 16:00:00 10.9 9 Norte 30 Norte 0.4 -- -- 84
2020-06-12 15:00:00 11.5 19 Noroeste 36 Noroeste 0 -- -- 74
2020-06-12 14:00:00 13.4 17 Norte 40 Norte 0 -- -- 59
2020-06-12 13:00:00 13 17 Norte 36 Norte 0 -- -- 57
2020-06-12 12:00:00 13.2 21 Norte 40 Noroeste 0 -- -- 59
2020-06-12 11:00:00 11.8 19 Norte 42 Norte 0 -- -- 64
2020-06-12 10:00:00 10.9 22 Norte 44 Noroeste 0 -- -- 69
2020-06-12 09:00:00 9.7 19 Noroeste 37 Norte 0 -- -- 77
2020-06-12 08:00:00 8.5 12 Noroeste 25 Noroeste 0 -- -- 84
2020-06-12 07:00:00 7.7 10 Noroeste 44 Norte 0 -- -- 87
2020-06-12 06:00:00 7.5 16 Noroeste 44 Norte 0 -- -- 88
2020-06-12 05:00:00 6.9 15 Noroeste 40 Noroeste 0 -- -- 89
2020-06-12 04:00:00 7.4 14 Norte 32 Norte 0 -- -- 81
2020-06-12 03:00:00 7.6 11 Noroeste 24 Oeste 0 -- -- 80
2020-06-12 02:00:00 8.1 7 Noroeste 24 Noroeste 0 -- -- 74
2020-06-12 01:00:00 7.8 8 Noroeste 26 Noroeste 0 -- -- 76
2020-06-12 00:00:00 7.7 14 Noroeste 23 Noroeste 0 -- -- 74
2020-06-11 23:00:00 8.6 10 Noroeste 25 Norte 0 -- -- 68
2020-06-11 22:00:00 9.8 12 Norte 30 Norte 0 -- -- 68
2020-06-11 21:00:00 9.3 5 Noroeste 26 Sudeste 0 -- -- 85
2020-06-11 20:00:00 10 12 Sudeste 36 Sur 0 -- -- 84
2020-06-11 19:00:00 10 15 Sudeste 40 Sudeste 0 -- -- 84
2020-06-11 18:00:00 13.2 20 Sudeste 37 Este 0 -- -- 75
2020-06-11 17:00:00 13.1 13 Sur 23 Sudeste 0 -- -- 74
2020-06-11 16:00:00 12.1 10 Sudeste 23 Sudeste 0 -- -- 79
2020-06-11 15:00:00 14.2 9 Sudeste 33 Nordeste 0 -- -- 71
2020-06-11 14:00:00 16.8 15 Norte 33 Noroeste 0 -- -- 56
2020-06-11 13:00:00 16.4 8 Noroeste 29 Norte 0 -- -- 62
2020-06-11 12:00:00 15.4 15 Norte 36 Noroeste 0 -- -- 65
2020-06-11 11:00:00 16.1 12 Norte 27 Norte 0 -- -- 66
2020-06-11 10:00:00 13.5 11 Norte 24 Norte 0 -- -- 79
2020-06-11 09:00:00 11.1 4 Nordeste 14 Oeste 0 -- -- 90
2020-06-11 08:00:00 9.9 3 Oeste 6 Noroeste 0 -- -- 97
2020-06-11 07:00:00 9.1 2 Sudeste 4 Sudeste 0 -- -- 97
2020-06-11 06:00:00 8.9 0 Calma 5 Este 0 -- -- 96
2020-06-11 05:00:00 8.7 3 Este 6 Este 0 -- -- 96
2020-06-11 04:00:00 8.4 0 Calma 8 Este 0 -- -- 96
2020-06-11 03:00:00 8.5 6 Este 9 Sudeste 0 -- -- 95
2020-06-11 02:00:00 9.4 0 Calma 13 Sudeste 0 -- -- 92
2020-06-11 01:00:00 9.8 7 Sur 13 Sur 0 -- -- 94
2020-06-11 00:00:00 9.9 8 Sur 16 Sur 0 -- -- 93